Time;durP1;ratioP1;P1;durP2;ratioP2;P2;SDS_P1;SDS_P2;PMS_P1;PMS_P2;Temp;Humidity;BMP_temperature;BMP_pressure;BME280_temperature;BME280_humidity;BME280_pressure;Samples;Min_cycle;Max_cycle;Signal;HPM_P1;HPM_P2
2022/04/03 00:01:20;;;;;;;;;;;-0.80;99.90;;;;;;5097812;28;19954;-74
2022/04/03 00:03:47;;;;;;;;;;;-0.80;99.90;;;;;;5098488;28;19967;-73
2022/04/03 00:06:17;;;;;;;;;;;-0.90;99.90;;;;;;5096574;28;20022;-73
2022/04/03 00:08:46;;;;;;;;;;;-1.10;99.90;;;;;;5104563;28;19949;-73
2022/04/03 00:11:13;;;;;;;;;;;-1.20;99.90;;;;;;5108175;28;19926;-73
2022/04/03 00:13:43;;;;;;;;;;;-1.20;99.90;;;;;;5104260;28;20585;-73
2022/04/03 00:16:11;;;;;;;;;;;-1.30;99.90;;;;;;5096864;28;19919;-73
2022/04/03 00:18:38;;;;;;;;;;;-1.30;99.90;;;;;;5105065;28;20017;-73
2022/04/03 00:21:04;;;;;;;;;;;-1.30;99.90;;;;;;5083593;28;19927;-73
2022/04/03 00:23:34;;;;;;;;;;;-1.30;99.90;;;;;;5099249;28;19919;-74
2022/04/03 00:26:01;;;;;;;;;;;-1.30;99.90;;;;;;5095084;28;19920;-74
2022/04/03 00:28:30;;;;;;;;;;;-1.20;99.90;;;;;;5093899;28;19971;-74
2022/04/03 00:30:57;;;;;;;;;;;-1.20;99.90;;;;;;5106716;28;19919;-74
2022/04/03 00:33:24;;;;;;;;;;;-1.10;99.90;;;;;;5077415;28;19994;-74
2022/04/03 00:35:51;;;;;;;;;;;-1.10;99.90;;;;;;5081635;28;20418;-74
2022/04/03 00:38:18;;;;;;;;;;;-1.10;99.90;;;;;;5101547;28;20006;-74
2022/04/03 00:40:46;;;;;;;;;;;-1.00;99.90;;;;;;5100332;28;19924;-74
2022/04/03 00:43:13;;;;;;;;;;;-1.00;99.90;;;;;;5105027;28;20529;-73
2022/04/03 00:45:43;;;;;;;;;;;-1.00;99.90;;;;;;5102201;28;19923;-73
2022/04/03 00:48:10;;;;;;;;;;;-1.00;99.90;;;;;;5102454;28;19946;-73
2022/04/03 00:50:41;;;;;;;;;;;-0.90;99.90;;;;;;5100177;28;19923;-73
2022/04/03 00:53:08;;;;;;;;;;;-1.00;99.90;;;;;;5098724;28;20389;-74
2022/04/03 00:55:39;;;;;;;;;;;-1.00;99.90;;;;;;5101843;28;20259;-73
2022/04/03 00:58:06;;;;;;;;;;;-1.10;99.90;;;;;;5080773;28;19924;-73
2022/04/03 01:00:33;;;;;;;;;;;-1.20;99.90;;;;;;5084241;28;19924;-73
2022/04/03 01:03:02;;;;;;;;;;;-1.30;99.90;;;;;;5097993;28;20270;-74
2022/04/03 01:05:33;;;;;;;;;;;-1.40;99.90;;;;;;5110218;28;20397;-74
2022/04/03 01:08:00;;;;;;;;;;;-1.50;99.90;;;;;;5092688;28;19934;-73
2022/04/03 01:10:27;;;;;;;;;;;-1.70;99.90;;;;;;5093458;28;19970;-73
2022/04/03 01:12:54;;;;;;;;;;;-1.80;99.90;;;;;;5112657;28;19963;-73
2022/04/03 01:15:20;;;;;;;;;;;-1.90;99.90;;;;;;5110310;28;19967;-73
2022/04/03 01:17:47;;;;;;;;;;;-2.00;99.90;;;;;;5100159;28;19942;-73
2022/04/03 01:20:14;;;;;;;;;;;-2.20;99.90;;;;;;5106475;28;19990;-73
2022/04/03 01:22:41;;;;;;;;;;;-2.20;99.90;;;;;;5110987;28;20014;-73
2022/04/03 01:25:11;;;;;;;;;;;-2.30;99.90;;;;;;5102082;28;19924;-73
2022/04/03 01:27:41;;;;;;;;;;;-2.30;99.90;;;;;;5110887;28;19924;-73
2022/04/03 01:30:11;;;;;;;;;;;-2.40;99.90;;;;;;5096123;28;20390;-73
2022/04/03 01:32:38;;;;;;;;;;;-2.40;99.90;;;;;;5107725;28;19924;-73
2022/04/03 01:35:05;;;;;;;;;;;-2.40;99.90;;;;;;5078874;28;19924;-73
2022/04/03 01:37:31;;;;;;;;;;;-2.40;99.90;;;;;;5104276;28;19985;-73
2022/04/03 01:39:58;;;;;;;;;;;-2.40;99.90;;;;;;5108145;28;19923;-73
2022/04/03 01:42:25;;;;;;;;;;;-2.40;99.90;;;;;;5107227;28;20007;-73
2022/04/03 01:44:51;;;;;;;;;;;-2.40;99.90;;;;;;5102303;28;19950;-73
2022/04/03 01:47:18;;;;;;;;;;;-2.40;99.90;;;;;;5094225;28;20379;-73
2022/04/03 01:49:45;;;;;;;;;;;-2.40;99.90;;;;;;5105841;28;20331;-73
2022/04/03 01:52:12;;;;;;;;;;;-2.40;99.90;;;;;;5103970;28;19954;-73
2022/04/03 01:54:39;;;;;;;;;;;-2.40;99.90;;;;;;5082478;28;19981;-73
2022/04/03 01:57:06;;;;;;;;;;;-2.50;99.90;;;;;;5089121;28;20058;-73
2022/04/03 01:59:32;;;;;;;;;;;-2.50;99.90;;;;;;5089524;28;20598;-73
2022/04/03 02:01:59;;;;;;;;;;;-2.60;99.90;;;;;;5101218;28;20572;-73
2022/04/03 02:04:26;;;;;;;;;;;-2.60;99.90;;;;;;5108819;28;20011;-73
2022/04/03 02:06:52;;;;;;;;;;;-2.60;99.90;;;;;;5097315;28;20018;-73
2022/04/03 02:09:19;;;;;;;;;;;-2.70;99.90;;;;;;5101817;28;19923;-74
2022/04/03 02:11:46;;;;;;;;;;;-2.70;99.90;;;;;;5103537;28;19934;-73
2022/04/03 02:14:12;;;;;;;;;;;-2.80;99.90;;;;;;5111032;28;19923;-73
2022/04/03 02:16:39;;;;;;;;;;;-2.80;99.90;;;;;;5106028;28;19923;-73
2022/04/03 02:19:06;;;;;;;;;;;-2.80;99.90;;;;;;5094080;28;20041;-73
2022/04/03 02:21:32;;;;;;;;;;;-2.90;99.90;;;;;;5100417;28;19924;-73
2022/04/03 02:23:59;;;;;;;;;;;-3.00;99.90;;;;;;5106411;28;19993;-73
2022/04/03 02:26:29;;;;;;;;;;;-3.00;99.90;;;;;;5088050;28;19927;-73
2022/04/03 02:28:58;;;;;;;;;;;-3.10;99.90;;;;;;5097731;28;20070;-74
2022/04/03 02:31:25;;;;;;;;;;;-3.20;99.90;;;;;;5106420;28;19924;-73
2022/04/03 02:33:51;;;;;;;;;;;-3.20;99.90;;;;;;5097418;28;19924;-73
2022/04/03 02:36:21;;;;;;;;;;;-3.20;99.90;;;;;;5113797;28;19924;-72
2022/04/03 02:38:48;;;;;;;;;;;-3.20;99.90;;;;;;5109868;28;19938;-72
2022/04/03 02:41:15;;;;;;;;;;;-3.20;99.90;;;;;;5100441;28;20002;-73
2022/04/03 02:43:46;;;;;;;;;;;-3.30;99.90;;;;;;5102132;28;19924;-73
2022/04/03 02:46:13;;;;;;;;;;;-3.30;99.90;;;;;;5105188;28;19924;-73
2022/04/03 02:48:39;;;;;;;;;;;-3.40;99.90;;;;;;5107971;28;19928;-74
2022/04/03 02:51:06;;;;;;;;;;;-3.50;99.90;;;;;;5082546;28;19924;-74
2022/04/03 02:53:33;;;;;;;;;;;-3.60;99.90;;;;;;5098092;28;19971;-74
2022/04/03 02:55:59;;;;;;;;;;;-3.60;99.90;;;;;;5091304;28;19969;-74
2022/04/03 02:58:26;;;;;;;;;;;-3.60;99.90;;;;;;5102642;28;20480;-73
2022/04/03 03:00:53;;;;;;;;;;;-3.70;99.90;;;;;;5100801;28;19967;-73
2022/04/03 03:03:20;;;;;;;;;;;-3.70;99.90;;;;;;5098486;28;19943;-74
2022/04/03 03:05:47;;;;;;;;;;;-3.70;99.90;;;;;;5098344;28;19981;-74
2022/04/03 03:08:13;;;;;;;;;;;-3.60;99.90;;;;;;5107064;28;19928;-73
2022/04/03 03:10:41;;;;;;;;;;;-3.70;99.90;;;;;;5094881;28;19931;-74
2022/04/03 03:13:12;;;;;;;;;;;-3.70;99.90;;;;;;5103081;28;19974;-74
2022/04/03 03:15:39;;;;;;;;;;;-3.70;99.90;;;;;;5099254;28;19978;-74
2022/04/03 03:18:06;;;;;;;;;;;-3.80;99.90;;;;;;5084071;28;20291;-74
2022/04/03 03:20:33;;;;;;;;;;;-3.80;99.90;;;;;;5084082;28;19977;-74
2022/04/03 03:23:00;;;;;;;;;;;-3.90;99.90;;;;;;5076300;28;19958;-73
2022/04/03 03:25:28;;;;;;;;;;;-3.90;99.90;;;;;;5103906;28;19924;-73
2022/04/03 03:27:57;;;;;;;;;;;-3.90;99.90;;;;;;5095841;28;19924;-73
2022/04/03 03:30:24;;;;;;;;;;;-4.10;99.90;;;;;;5090557;28;19963;-74
2022/04/03 03:32:51;;;;;;;;;;;-4.10;99.90;;;;;;5106859;28;20000;-73
2022/04/03 03:35:18;;;;;;;;;;;-4.10;99.90;;;;;;5095593;28;20379;-73
2022/04/03 03:37:44;;;;;;;;;;;-4.20;99.90;;;;;;5102298;28;20251;-74
2022/04/03 03:40:14;;;;;;;;;;;-4.20;99.90;;;;;;5089657;28;20409;-74
2022/04/03 03:42:44;;;;;;;;;;;-4.30;99.90;;;;;;5108011;28;19947;-74
2022/04/03 03:45:13;;;;;;;;;;;-4.40;99.90;;;;;;5109245;28;19930;-74
2022/04/03 03:47:42;;;;;;;;;;;-4.40;99.90;;;;;;5097247;28;19931;-74
2022/04/03 03:50:08;;;;;;;;;;;-4.40;99.90;;;;;;5098587;28;19925;-75
2022/04/03 03:52:35;;;;;;;;;;;-4.50;99.90;;;;;;5098527;28;19959;-75
2022/04/03 03:55:02;;;;;;;;;;;-4.50;99.90;;;;;;5096979;28;19924;-75
2022/04/03 03:57:29;;;;;;;;;;;-4.50;99.90;;;;;;5100928;28;19924;-75
2022/04/03 03:59:56;;;;;;;;;;;-4.50;99.90;;;;;;5104599;28;20380;-75
2022/04/03 04:02:22;;;;;;;;;;;-4.50;99.90;;;;;;5097987;28;20293;-75
2022/04/03 04:04:49;;;;;;;;;;;-4.50;99.90;;;;;;5084334;28;19924;-74
2022/04/03 04:07:16;;;;;;;;;;;-4.50;99.90;;;;;;5105981;28;19924;-74
2022/04/03 04:09:42;;;;;;;;;;;-4.50;99.90;;;;;;5099320;28;20018;-74
2022/04/03 04:12:09;;;;;;;;;;;-4.50;99.90;;;;;;5109109;28;19923;-75
2022/04/03 04:14:38;;;;;;;;;;;-4.60;99.90;;;;;;5107702;28;19924;-74
2022/04/03 04:17:06;;;;;;;;;;;-4.60;99.90;;;;;;5100355;28;19981;-74
2022/04/03 04:19:34;;;;;;;;;;;-4.60;99.90;;;;;;5099196;28;19973;-74
2022/04/03 04:22:01;;;;;;;;;;;-4.60;99.90;;;;;;5101351;28;19924;-74
2022/04/03 04:24:27;;;;;;;;;;;-4.50;99.90;;;;;;5099079;28;20489;-73
2022/04/03 04:26:58;;;;;;;;;;;-4.50;99.90;;;;;;5100945;28;19927;-73
2022/04/03 04:29:25;;;;;;;;;;;-4.50;99.90;;;;;;5106067;28;19934;-74
2022/04/03 04:31:52;;;;;;;;;;;-4.50;99.90;;;;;;5092425;28;20019;-73
2022/04/03 04:34:22;;;;;;;;;;;-4.60;99.90;;;;;;5097966;28;19963;-74
2022/04/03 04:36:48;;;;;;;;;;;-4.70;99.90;;;;;;5101924;28;19924;-74
2022/04/03 04:39:15;;;;;;;;;;;-4.70;99.90;;;;;;5102717;28;20337;-74
2022/04/03 04:41:42;;;;;;;;;;;-4.80;99.90;;;;;;5105938;28;20006;-73
2022/04/03 04:44:09;;;;;;;;;;;-4.90;99.90;;;;;;5105691;28;20382;-73
2022/04/03 04:46:36;;;;;;;;;;;-4.90;99.90;;;;;;5109553;28;19924;-74
2022/04/03 04:49:03;;;;;;;;;;;-4.90;99.90;;;;;;5102425;28;19930;-73
2022/04/03 04:51:32;;;;;;;;;;;-4.90;99.90;;;;;;5108069;28;20022;-73
2022/04/03 04:53:59;;;;;;;;;;;-4.90;99.90;;;;;;5106319;28;19987;-74
2022/04/03 04:56:26;;;;;;;;;;;-4.90;99.90;;;;;;5102250;28;19924;-74
2022/04/03 04:58:53;;;;;;;;;;;-4.90;99.90;;;;;;5104050;28;20011;-74
2022/04/03 05:01:20;;;;;;;;;;;-4.90;99.90;;;;;;5094971;28;19928;-74
2022/04/03 05:03:46;;;;;;;;;;;-4.90;99.90;;;;;;5104027;27;19928;-74
2022/04/03 05:06:15;;;;;;;;;;;-4.90;99.90;;;;;;5098770;27;19930;-73
2022/04/03 05:08:43;;;;;;;;;;;-4.80;99.90;;;;;;5112089;28;19946;-73
2022/04/03 05:11:10;;;;;;;;;;;-4.80;99.90;;;;;;5098329;28;19931;-73
2022/04/03 05:13:37;;;;;;;;;;;-4.80;99.90;;;;;;5088211;28;20007;-73
2022/04/03 05:16:05;;;;;;;;;;;-4.80;99.90;;;;;;5097561;28;20031;-73
2022/04/03 05:18:38;;;;;;;;;;;-4.80;99.90;;;;;;5107713;28;19938;-74
2022/04/03 05:21:07;;;;;;;;;;;-4.80;99.90;;;;;;5101056;28;20011;-73
2022/04/03 05:23:38;;;;;;;;;;;-4.90;99.90;;;;;;5088649;28;20025;-73
2022/04/03 05:26:05;;;;;;;;;;;-4.90;99.90;;;;;;5105669;28;19924;-74
2022/04/03 05:28:31;;;;;;;;;;;-4.80;99.90;;;;;;5111426;28;19927;-74
2022/04/03 05:30:58;;;;;;;;;;;-4.80;99.90;;;;;;5109146;27;20496;-73
2022/04/03 05:33:25;;;;;;;;;;;-4.70;99.90;;;;;;5088610;28;19954;-74
2022/04/03 05:35:51;;;;;;;;;;;-4.70;99.90;;;;;;5106349;28;19932;-73
2022/04/03 05:38:19;;;;;;;;;;;-4.60;99.90;;;;;;5093746;27;19924;-73
2022/04/03 05:40:46;;;;;;;;;;;-4.50;99.90;;;;;;5102494;27;19930;-72
2022/04/03 05:43:15;;;;;;;;;;;-4.40;99.90;;;;;;5098084;27;19923;-72
2022/04/03 05:45:42;;;;;;;;;;;-4.30;99.90;;;;;;5100392;28;19932;-73
2022/04/03 05:48:12;;;;;;;;;;;-4.20;99.90;;;;;;5096716;28;19928;-72
2022/04/03 05:50:39;;;;;;;;;;;-4.20;99.90;;;;;;5103613;28;19967;-72
2022/04/03 05:53:06;;;;;;;;;;;-4.10;99.90;;;;;;5103948;28;19967;-72
2022/04/03 05:55:33;;;;;;;;;;;-4.00;99.90;;;;;;5097168;28;20016;-73
2022/04/03 05:58:00;;;;;;;;;;;-3.80;99.90;;;;;;5097940;28;20007;-73
2022/04/03 06:00:26;;;;;;;;;;;-3.70;99.90;;;;;;5099667;28;20383;-72
2022/04/03 06:02:54;;;;;;;;;;;-3.60;99.90;;;;;;5104649;28;19924;-73
2022/04/03 06:05:25;;;;;;;;;;;-3.60;99.90;;;;;;5101528;28;19931;-72
2022/04/03 06:07:58;;;;;;;;;;;-3.40;99.90;;;;;;5100753;28;20473;-73
2022/04/03 06:10:25;;;;;;;;;;;-3.30;99.90;;;;;;5108599;28;19989;-73
2022/04/03 06:12:55;;;;;;;;;;;-3.10;99.90;;;;;;5103117;28;19955;-73
2022/04/03 06:15:26;;;;;;;;;;;-3.10;99.90;;;;;;5111150;28;19978;-73
2022/04/03 06:17:53;;;;;;;;;;;-2.90;99.90;;;;;;5088209;28;19930;-73
2022/04/03 06:20:22;;;;;;;;;;;-2.80;99.90;;;;;;5105364;28;20117;-73
2022/04/03 06:22:48;;;;;;;;;;;-2.40;99.90;;;;;;5107361;28;20015;-74
2022/04/03 06:25:15;;;;;;;;;;;-1.30;99.90;;;;;;5097277;28;20406;-74
2022/04/03 06:27:42;;;;;;;;;;;0.40;99.90;;;;;;5090633;28;19932;-74
2022/04/03 06:30:10;;;;;;;;;;;2.10;99.90;;;;;;5095309;27;19935;-74
2022/04/03 06:32:36;;;;;;;;;;;3.60;99.90;;;;;;5100921;28;19928;-72
2022/04/03 06:35:04;;;;;;;;;;;4.90;99.90;;;;;;5098107;28;19947;-74
2022/04/03 06:37:30;;;;;;;;;;;5.90;99.90;;;;;;5081649;28;20581;-73
2022/04/03 06:39:57;;;;;;;;;;;6.40;99.90;;;;;;5097841;28;19939;-73
2022/04/03 06:42:24;;;;;;;;;;;6.50;99.90;;;;;;5098234;28;19931;-73
2022/04/03 06:44:52;;;;;;;;;;;6.60;99.90;;;;;;5095003;28;19928;-73
2022/04/03 06:47:19;;;;;;;;;;;6.90;99.90;;;;;;5094868;28;19924;-73
2022/04/03 06:49:45;;;;;;;;;;;6.90;99.90;;;;;;5105550;28;19935;-73
2022/04/03 06:52:12;;;;;;;;;;;6.50;99.90;;;;;;5097949;28;20321;-74
2022/04/03 06:54:39;;;;;;;;;;;6.20;99.90;;;;;;5089658;28;19924;-74
2022/04/03 06:57:06;;;;;;;;;;;6.00;99.90;;;;;;5098366;28;19956;-74
2022/04/03 06:59:33;;;;;;;;;;;5.90;99.90;;;;;;5092694;28;19986;-74
2022/04/03 07:02:00;;;;;;;;;;;6.00;99.90;;;;;;5098426;28;19927;-74
2022/04/03 07:04:27;;;;;;;;;;;6.10;99.90;;;;;;5095997;27;19932;-74
2022/04/03 07:06:54;;;;;;;;;;;6.30;99.90;;;;;;5086656;28;19934;-74
2022/04/03 07:09:20;;;;;;;;;;;6.40;99.70;;;;;;5092407;28;19961;-74
2022/04/03 07:11:47;;;;;;;;;;;6.60;99.70;;;;;;5090734;28;19962;-73
2022/04/03 07:14:14;;;;;;;;;;;6.80;99.10;;;;;;5094441;28;19924;-75
2022/04/03 07:16:41;;;;;;;;;;;6.40;98.40;;;;;;5096161;28;20429;-74
2022/04/03 07:19:07;;;;;;;;;;;6.10;98.60;;;;;;5100921;28;20486;-76
2022/04/03 07:21:34;;;;;;;;;;;6.50;98.70;;;;;;5098543;28;20294;-75
2022/04/03 07:24:01;;;;;;;;;;;6.80;98.10;;;;;;5094802;27;19934;-75
2022/04/03 07:26:27;;;;;;;;;;;6.70;97.40;;;;;;5099383;28;19973;-75
2022/04/03 07:28:54;;;;;;;;;;;6.90;97.70;;;;;;5095137;28;20018;-75
2022/04/03 07:31:21;;;;;;;;;;;7.40;97.60;;;;;;5077693;28;20019;-76
2022/04/03 07:33:48;;;;;;;;;;;7.50;96.50;;;;;;5093419;28;19928;-76
2022/04/03 07:36:16;;;;;;;;;;;7.40;96.80;;;;;;5098908;28;19938;-76
2022/04/03 07:38:42;;;;;;;;;;;7.60;96.60;;;;;;5092719;28;19928;-75
2022/04/03 07:41:09;;;;;;;;;;;8.00;96.20;;;;;;5093447;28;19932;-75
2022/04/03 07:43:36;;;;;;;;;;;7.90;96.40;;;;;;5094935;28;19924;-75
2022/04/03 07:46:03;;;;;;;;;;;7.60;95.80;;;;;;5098256;28;20027;-75
2022/04/03 07:48:29;;;;;;;;;;;7.60;96.90;;;;;;5095502;28;19931;-75
2022/04/03 07:50:56;;;;;;;;;;;8.00;95.50;;;;;;5098622;28;20322;-76
2022/04/03 07:53:23;;;;;;;;;;;8.20;95.00;;;;;;5098465;28;19928;-75
2022/04/03 07:55:49;;;;;;;;;;;8.20;95.40;;;;;;5101362;28;19943;-75
2022/04/03 07:58:16;;;;;;;;;;;8.10;95.60;;;;;;5094510;28;20015;-74
2022/04/03 08:00:43;;;;;;;;;;;8.30;95.80;;;;;;5106782;28;19930;-73
2022/04/03 08:03:11;;;;;;;;;;;8.30;95.20;;;;;;5092783;28;20053;-74
2022/04/03 08:05:38;;;;;;;;;;;8.10;95.20;;;;;;5108715;28;19923;-73
2022/04/03 08:08:05;;;;;;;;;;;7.90;94.80;;;;;;5094084;28;20022;-74
2022/04/03 08:10:32;;;;;;;;;;;8.00;95.60;;;;;;5093480;28;20443;-74
2022/04/03 08:12:58;;;;;;;;;;;7.70;94.50;;;;;;5085233;28;19981;-75
2022/04/03 08:15:25;;;;;;;;;;;7.40;94.50;;;;;;5100574;28;19928;-73
2022/04/03 08:17:52;;;;;;;;;;;7.20;94.40;;;;;;5097289;28;19931;-74
2022/04/03 08:20:21;;;;;;;;;;;7.10;95.20;;;;;;5102359;28;20038;-74
2022/04/03 08:22:48;;;;;;;;;;;7.10;95.30;;;;;;5097865;28;19934;-74
2022/04/03 08:25:18;;;;;;;;;;;7.40;94.20;;;;;;5091387;28;19924;-74
2022/04/03 08:27:44;;;;;;;;;;;7.50;94.20;;;;;;5089251;28;19935;-74
2022/04/03 08:30:13;;;;;;;;;;;7.90;94.20;;;;;;5102555;28;20223;-74
2022/04/03 08:32:40;;;;;;;;;;;8.30;93.90;;;;;;5088297;28;19950;-74
2022/04/03 08:35:07;;;;;;;;;;;8.60;93.60;;;;;;5103062;28;19930;-74
2022/04/03 08:37:34;;;;;;;;;;;8.30;92.90;;;;;;5098900;28;19928;-74
2022/04/03 08:40:04;;;;;;;;;;;8.10;92.90;;;;;;5097917;28;20026;-73
2022/04/03 08:42:34;;;;;;;;;;;8.00;92.60;;;;;;5097924;28;19924;-73
2022/04/03 08:45:02;;;;;;;;;;;7.60;92.30;;;;;;5092350;28;20028;-73
2022/04/03 08:47:31;;;;;;;;;;;7.60;93.10;;;;;;5097682;28;19924;-73
2022/04/03 08:49:59;;;;;;;;;;;7.30;92.50;;;;;;5102169;28;19988;-73
2022/04/03 08:52:27;;;;;;;;;;;7.20;92.40;;;;;;5093467;28;19932;-73
2022/04/03 08:54:54;;;;;;;;;;;6.80;92.60;;;;;;5100505;28;19931;-73
2022/04/03 08:57:23;;;;;;;;;;;6.80;92.90;;;;;;5097220;28;19938;-74
2022/04/03 08:59:51;;;;;;;;;;;7.20;92.00;;;;;;5099099;28;19924;-74
2022/04/03 09:02:21;;;;;;;;;;;7.80;91.70;;;;;;5092256;28;20392;-72
2022/04/03 09:04:48;;;;;;;;;;;8.00;90.00;;;;;;5097089;28;19928;-73
2022/04/03 09:07:18;;;;;;;;;;;8.40;91.30;;;;;;5089407;28;20393;-73
2022/04/03 09:09:47;;;;;;;;;;;8.90;90.70;;;;;;5092391;28;20019;-74
2022/04/03 09:12:18;;;;;;;;;;;9.10;86.80;;;;;;5102150;28;20412;-73
2022/04/03 09:14:46;;;;;;;;;;;8.80;86.40;;;;;;5093381;28;19927;-74
2022/04/03 09:17:29;;;;;;;;;;;9.10;84.70;;;;;;5099018;28;19930;-73
2022/04/03 09:19:58;;;;;;;;;;;9.00;83.80;;;;;;5101603;28;20366;-74
2022/04/03 09:22:28;;;;;;;;;;;9.00;82.40;;;;;;5105696;28;19985;-73
2022/04/03 09:24:55;;;;;;;;;;;8.90;81.40;;;;;;5103360;28;20279;-73
2022/04/03 09:27:22;;;;;;;;;;;8.60;83.50;;;;;;5106440;28;19924;-74
2022/04/03 09:30:06;;;;;;;;;;;8.30;82.40;;;;;;5100178;28;19963;-73
2022/04/03 09:32:33;;;;;;;;;;;7.90;84.30;;;;;;5099200;28;19924;-73
2022/04/03 09:35:00;;;;;;;;;;;8.40;84.00;;;;;;5099281;27;19992;-73
2022/04/03 09:37:31;;;;;;;;;;;8.80;84.10;;;;;;5089357;28;19931;-73
2022/04/03 09:39:58;;;;;;;;;;;9.20;82.40;;;;;;5098142;28;19927;-74
2022/04/03 09:42:28;;;;;;;;;;;9.50;80.60;;;;;;5095000;28;20038;-74
2022/04/03 09:45:00;;;;;;;;;;;9.50;81.30;;;;;;5084923;28;19930;-73
2022/04/03 09:47:30;;;;;;;;;;;9.60;83.50;;;;;;5079651;28;19930;-73
2022/04/03 09:49:57;;;;;;;;;;;9.50;80.70;;;;;;5075538;28;19977;-73
2022/04/03 09:52:40;;;;;;;;;;;9.40;81.90;;;;;;5099588;28;20005;-73
2022/04/03 09:55:15;;;;;;;;;;;9.60;80.90;;;;;;5109304;28;19924;-73
2022/04/03 09:57:43;;;;;;;;;;;9.70;80.50;;;;;;5099307;28;20378;-73
2022/04/03 10:00:30;;;;;;;;;;;9.30;80.60;;;;;;5101679;28;19924;-73
2022/04/03 10:02:59;;;;;;;;;;;9.30;81.60;;;;;;5098543;28;19974;-69
2022/04/03 10:05:29;;;;;;;;;;;9.30;80.10;;;;;;5103498;27;19930;-69
2022/04/03 10:08:00;;;;;;;;;;;9.30;80.90;;;;;;5102493;27;19930;-69
2022/04/03 10:10:28;;;;;;;;;;;8.90;79.90;;;;;;5110133;27;19997;-69
2022/04/03 10:12:55;;;;;;;;;;;9.00;78.60;;;;;;5098777;27;19927;-68
2022/04/03 10:15:23;;;;;;;;;;;9.80;79.10;;;;;;5096203;28;20003;-71
2022/04/03 10:17:55;;;;;;;;;;;10.00;80.00;;;;;;5076873;28;19928;-70
2022/04/03 10:20:28;;;;;;;;;;;10.40;80.40;;;;;;5081330;28;19930;-67
2022/04/03 10:23:18;;;;;;;;;;;10.70;78.30;;;;;;5089866;27;20022;-70
2022/04/03 10:25:46;;;;;;;;;;;9.80;78.10;;;;;;5063403;28;19929;-70
2022/04/03 10:28:17;;;;;;;;;;;10.00;80.10;;;;;;5062747;28;21696;-69
2022/04/03 10:30:44;;;;;;;;;;;9.80;80.80;;;;;;5057344;28;19933;-71
2022/04/03 10:33:17;;;;;;;;;;;10.00;80.10;;;;;;5043647;28;20338;-69
2022/04/03 10:35:46;;;;;;;;;;;10.30;80.30;;;;;;5061592;28;19930;-70
2022/04/03 10:38:13;;;;;;;;;;;10.70;79.10;;;;;;5059554;28;20091;-70
2022/04/03 10:40:40;;;;;;;;;;;11.00;79.80;;;;;;5065475;28;19924;-69
2022/04/03 10:43:06;;;;;;;;;;;11.50;80.80;;;;;;5064980;28;19924;-69
2022/04/03 10:45:36;;;;;;;;;;;11.80;78.40;;;;;;5060533;28;19963;-69
2022/04/03 10:48:23;;;;;;;;;;;12.50;79.10;;;;;;5063775;28;19928;-69
2022/04/03 10:51:08;;;;;;;;;;;13.50;79.30;;;;;;5064791;28;20460;-69
2022/04/03 10:53:36;;;;;;;;;;;14.00;79.30;;;;;;5063594;28;20357;-68
2022/04/03 10:56:08;;;;;;;;;;;14.20;75.70;;;;;;5061985;28;19928;-69
2022/04/03 10:58:45;;;;;;;;;;;14.20;75.20;;;;;;5061028;28;19925;-69
2022/04/03 11:01:25;;;;;;;;;;;13.70;74.40;;;;;;5062941;28;19924;-68
2022/04/03 11:03:57;;;;;;;;;;;13.10;74.50;;;;;;5095355;27;19967;-68
2022/04/03 11:06:30;;;;;;;;;;;11.40;73.90;;;;;;5111229;27;19985;-68
2022/04/03 11:08:58;;;;;;;;;;;10.20;73.90;;;;;;5100953;27;19938;-69
2022/04/03 11:11:34;;;;;;;;;;;9.20;76.90;;;;;;5107232;27;20437;-69
2022/04/03 11:14:00;;;;;;;;;;;9.00;78.50;;;;;;5101710;27;20374;-69
2022/04/03 11:16:28;;;;;;;;;;;9.80;77.90;;;;;;5109592;27;20029;-69
2022/04/03 11:19:02;;;;;;;;;;;10.70;76.00;;;;;;5095712;28;19962;-70
2022/04/03 11:21:33;;;;;;;;;;;11.30;75.40;;;;;;5097119;27;20007;-68
2022/04/03 11:24:13;;;;;;;;;;;11.60;74.50;;;;;;5096769;28;19927;-72
2022/04/03 11:26:41;;;;;;;;;;;11.70;73.70;;;;;;5094388;28;19928;-72
2022/04/03 11:29:09;;;;;;;;;;;11.60;73.60;;;;;;5102103;28;20374;-73
2022/04/03 11:31:36;;;;;;;;;;;11.30;74.50;;;;;;5101433;28;19924;-71
2022/04/03 11:34:03;;;;;;;;;;;10.90;74.00;;;;;;5099386;28;19923;-71
2022/04/03 11:36:30;;;;;;;;;;;11.20;75.30;;;;;;5097763;28;19928;-70
2022/04/03 11:39:00;;;;;;;;;;;11.50;75.00;;;;;;5097893;27;20374;-70
2022/04/03 11:41:28;;;;;;;;;;;12.40;75.80;;;;;;5101042;28;19924;-70
2022/04/03 11:44:03;;;;;;;;;;;12.60;74.90;;;;;;5104122;28;19924;-72
2022/04/03 11:46:43;;;;;;;;;;;12.60;72.90;;;;;;5104343;27;19951;-70
2022/04/03 11:49:14;;;;;;;;;;;12.70;74.50;;;;;;5092388;28;20364;-70
2022/04/03 11:51:42;;;;;;;;;;;12.70;72.50;;;;;;5099584;27;20520;-70
2022/04/03 11:54:09;;;;;;;;;;;12.00;71.40;;;;;;5095462;28;21217;-70
2022/04/03 11:56:39;;;;;;;;;;;12.10;72.40;;;;;;5093962;28;20055;-71
2022/04/03 11:59:12;;;;;;;;;;;12.20;73.30;;;;;;5094510;28;20350;-71
2022/04/03 12:01:41;;;;;;;;;;;12.50;73.80;;;;;;5096490;28;19972;-72
2022/04/03 12:04:10;;;;;;;;;;;12.50;74.00;;;;;;5099771;28;20481;-72
2022/04/03 12:06:47;;;;;;;;;;;12.10;74.10;;;;;;5102544;28;20505;-72
2022/04/03 12:09:15;;;;;;;;;;;12.10;76.10;;;;;;5094791;28;19928;-71
2022/04/03 12:11:45;;;;;;;;;;;12.10;74.80;;;;;;5107597;28;19979;-68
2022/04/03 12:14:20;;;;;;;;;;;12.30;75.30;;;;;;5096495;28;19924;-71
2022/04/03 12:16:53;;;;;;;;;;;12.40;75.90;;;;;;5085476;28;19985;-71
2022/04/03 12:19:20;;;;;;;;;;;12.40;77.70;;;;;;5095272;28;19930;-71
2022/04/03 12:21:49;;;;;;;;;;;12.10;75.80;;;;;;5091557;28;20413;-68
2022/04/03 12:24:21;;;;;;;;;;;11.90;74.40;;;;;;5089932;28;20824;-68
2022/04/03 12:26:51;;;;;;;;;;;12.50;76.20;;;;;;5093945;28;19935;-68
2022/04/03 12:29:18;;;;;;;;;;;12.60;74.40;;;;;;5098981;28;20026;-69
2022/04/03 12:31:55;;;;;;;;;;;12.20;74.40;;;;;;5089947;28;19932;-71
2022/04/03 12:34:21;;;;;;;;;;;12.20;74.80;;;;;;5095177;28;19923;-68
2022/04/03 12:36:49;;;;;;;;;;;12.50;77.20;;;;;;5091690;28;19930;-68
2022/04/03 12:39:26;;;;;;;;;;;12.70;77.20;;;;;;5089153;28;19924;-69
2022/04/03 12:41:53;;;;;;;;;;;12.80;73.50;;;;;;5081298;28;19924;-71
2022/04/03 12:44:20;;;;;;;;;;;11.90;72.30;;;;;;5097975;28;20420;-73
2022/04/03 12:46:47;;;;;;;;;;;11.20;72.70;;;;;;5100514;28;19963;-71
2022/04/03 12:49:19;;;;;;;;;;;10.80;73.50;;;;;;5095581;28;20438;-71
2022/04/03 12:51:50;;;;;;;;;;;10.80;72.40;;;;;;5100931;28;19924;-71
2022/04/03 12:54:18;;;;;;;;;;;10.90;73.10;;;;;;5101398;28;19991;-72
2022/04/03 12:59:37;;;;;;;;;;;11.20;74.10;;;;;;5100489;28;20014;-71
2022/04/03 13:02:05;;;;;;;;;;;11.20;73.50;;;;;;5098809;27;20390;-71
2022/04/03 13:04:32;;;;;;;;;;;11.20;73.80;;;;;;5096836;28;19978;-72
2022/04/03 13:06:59;;;;;;;;;;;11.50;74.40;;;;;;5099904;28;20007;-72
2022/04/03 13:09:25;;;;;;;;;;;11.90;74.80;;;;;;5083397;28;19935;-71
2022/04/03 13:11:52;;;;;;;;;;;12.10;74.10;;;;;;5107384;28;19930;-72
2022/04/03 13:14:19;;;;;;;;;;;12.10;72.90;;;;;;5098781;28;19930;-70
2022/04/03 13:16:47;;;;;;;;;;;12.10;72.80;;;;;;5102076;28;20023;-70
2022/04/03 13:19:15;;;;;;;;;;;12.40;73.00;;;;;;5095685;28;19955;-71
2022/04/03 13:21:42;;;;;;;;;;;12.90;73.80;;;;;;5108113;27;19931;-70
2022/04/03 13:24:09;;;;;;;;;;;13.60;72.80;;;;;;5105430;28;19931;-71
2022/04/03 13:26:52;;;;;;;;;;;13.80;72.70;;;;;;5085149;28;19977;-72
2022/04/03 13:29:19;;;;;;;;;;;13.60;72.30;;;;;;5097278;27;19928;-72
2022/04/03 13:31:46;;;;;;;;;;;13.30;72.60;;;;;;5108164;27;19930;-73
2022/04/03 13:34:13;;;;;;;;;;;12.80;72.10;;;;;;5101283;28;19932;-71
2022/04/03 13:36:40;;;;;;;;;;;12.70;72.70;;;;;;5096051;27;19963;-71
2022/04/03 13:39:08;;;;;;;;;;;13.10;72.20;;;;;;5101209;27;19924;-71
2022/04/03 13:41:40;;;;;;;;;;;13.80;72.80;;;;;;5081444;28;19928;-69
2022/04/03 13:44:07;;;;;;;;;;;14.30;73.50;;;;;;5108079;28;20290;-71
2022/04/03 13:46:34;;;;;;;;;;;14.70;71.70;;;;;;5106972;27;20132;-70
2022/04/03 13:49:01;;;;;;;;;;;15.00;70.90;;;;;;5101165;28;20026;-70
2022/04/03 13:51:28;;;;;;;;;;;15.70;69.70;;;;;;5077983;28;19924;-70
2022/04/03 13:53:55;;;;;;;;;;;16.50;69.10;;;;;;5105944;28;19982;-70
2022/04/03 13:56:23;;;;;;;;;;;17.40;69.70;;;;;;5086039;28;20359;-71
2022/04/03 13:58:51;;;;;;;;;;;17.60;69.50;;;;;;5098912;28;19924;-72
2022/04/03 14:01:19;;;;;;;;;;;16.60;68.30;;;;;;5098052;28;19977;-72
2022/04/03 14:03:47;;;;;;;;;;;15.60;70.60;;;;;;5108644;28;20370;-72
2022/04/03 14:06:14;;;;;;;;;;;15.30;69.90;;;;;;5102031;28;19934;-71
2022/04/03 14:08:41;;;;;;;;;;;16.10;72.80;;;;;;5104308;28;20781;-71
2022/04/03 14:11:08;;;;;;;;;;;16.20;68.70;;;;;;5097999;28;19932;-70
2022/04/03 14:13:37;;;;;;;;;;;17.50;68.00;;;;;;5096969;27;19947;-69
2022/04/03 14:16:04;;;;;;;;;;;17.60;68.00;;;;;;5095965;28;19936;-75
2022/04/03 14:18:31;;;;;;;;;;;17.40;68.00;;;;;;5100512;28;19924;-74
2022/04/03 14:20:59;;;;;;;;;;;16.80;67.30;;;;;;5104108;28;19924;-74
2022/04/03 14:23:32;;;;;;;;;;;15.50;67.20;;;;;;5115200;27;19924;-75
2022/04/03 14:26:01;;;;;;;;;;;13.60;68.60;;;;;;5091614;27;20373;-75
2022/04/03 14:28:32;;;;;;;;;;;12.40;70.10;;;;;;5107020;27;19931;-74
2022/04/03 14:30:59;;;;;;;;;;;11.80;70.50;;;;;;5115033;27;19923;-74